METAR Data
IDs: Format: Raw Decoded Include TAF

Data at: 1926 UTC 18 Jul 2019

KWVI 181853Z AUTO 23008KT 10SM CLR 20/13 A2998 RMK AO2 SLP153 T02000128

KSNS 181853Z 30010KT 10SM CLR 19/13 A2997 RMK AO2 SLP158 T01940128

KMRY 181854Z 26009KT 10SM CLR 19/12 A2998 RMK AO2 SLP164 T01940117

KSJC 181853Z 00000KT 10SM BKN100 BKN160 26/12 A2992 RMK AO2 SLP129 T02560122 $

KSFO 181856Z 05008KT 10SM BKN200 22/13 A2993 RMK AO2 SLP135 T02170133

KHAF 181920Z AUTO 16010KT 10SM SCT006 16/13 A2999 RMK AO2